createdAt,value
2018-07-04T00:00:29.637Z,1.50
2018-07-04T00:01:29.631Z,1.70
2018-07-04T00:02:29.605Z,1.40
2018-07-04T00:03:29.540Z,1.70
2018-07-04T00:04:29.514Z,1.60
2018-07-04T00:05:29.499Z,1.70
2018-07-04T00:06:29.430Z,1.70
2018-07-04T00:07:29.412Z,1.60
2018-07-04T00:08:29.403Z,1.60
2018-07-04T00:09:29.329Z,1.60
2018-07-04T00:10:29.296Z,1.80
2018-07-04T00:11:29.263Z,1.80
2018-07-04T00:12:29.213Z,1.70
2018-07-04T00:13:29.203Z,1.50
2018-07-04T00:14:29.187Z,1.60
2018-07-04T00:15:29.142Z,1.50
2018-07-04T00:16:29.088Z,1.50
2018-07-04T00:17:29.053Z,1.60
2018-07-04T00:18:29.039Z,1.60
2018-07-04T00:19:37.437Z,1.70
2018-07-04T00:20:28.998Z,1.50
2018-07-04T00:21:28.899Z,1.80
2018-07-04T00:22:28.856Z,1.80
2018-07-04T00:23:28.863Z,1.70
2018-07-04T00:24:28.817Z,1.80
2018-07-04T00:25:28.757Z,1.50
2018-07-04T00:26:28.724Z,1.50
2018-07-04T00:27:28.688Z,1.80
2018-07-04T00:28:28.678Z,1.60
2018-07-04T00:29:28.619Z,1.80
2018-07-04T00:30:28.568Z,1.60
2018-07-04T00:31:28.551Z,1.80
2018-07-04T00:32:28.495Z,1.60
2018-07-04T00:33:28.475Z,1.60
2018-07-04T00:34:28.465Z,1.50
2018-07-04T00:35:28.406Z,1.60
2018-07-04T00:36:28.350Z,1.50
2018-07-04T00:37:28.360Z,1.80
2018-07-04T00:38:28.304Z,1.60
2018-07-04T00:39:28.276Z,1.60
2018-07-04T00:40:28.217Z,1.60
2018-07-04T00:41:28.198Z,1.70
2018-07-04T00:42:28.141Z,1.50
2018-07-04T00:43:36.471Z,1.70
2018-07-04T00:44:28.105Z,1.60
2018-07-04T00:45:28.038Z,1.50
2018-07-04T00:46:27.998Z,1.70
2018-07-04T00:47:27.979Z,1.80
2018-07-04T00:48:27.922Z,1.50
2018-07-04T00:49:28.004Z,1.70
2018-07-04T00:50:27.889Z,1.60
2018-07-04T00:51:27.822Z,1.40
2018-07-04T00:52:27.785Z,1.60
2018-07-04T00:53:27.766Z,1.70
2018-07-04T00:54:27.755Z,1.50
2018-07-04T00:55:27.696Z,1.40
2018-07-04T00:56:27.649Z,1.50
2018-07-04T00:57:27.618Z,1.50
2018-07-04T00:58:27.579Z,1.60
2018-07-04T00:59:27.565Z,1.60
2018-07-04T01:00:27.524Z,1.40
2018-07-04T01:01:27.460Z,1.60
2018-07-04T01:02:27.448Z,1.50
2018-07-04T01:03:27.399Z,1.80
2018-07-04T01:04:27.443Z,1.60
2018-07-04T01:05:27.360Z,1.60
2018-07-04T01:06:38.534Z,1.60
2018-07-04T01:07:27.247Z,1.50
2018-07-04T01:08:27.209Z,1.70
2018-07-04T01:09:27.201Z,1.60
2018-07-04T01:10:27.144Z,2.00
2018-07-04T01:11:27.102Z,1.60
2018-07-04T01:12:27.071Z,1.60
2018-07-04T01:13:27.047Z,1.40
2018-07-04T01:14:27.033Z,1.70
2018-07-04T01:15:27.017Z,1.40
2018-07-04T01:16:26.940Z,1.60
2018-07-04T01:17:26.886Z,1.70
2018-07-04T01:18:26.855Z,1.50
2018-07-04T01:19:26.877Z,1.80
2018-07-04T01:20:26.782Z,1.90
2018-07-04T01:21:26.739Z,1.70
2018-07-04T01:22:26.741Z,1.50
2018-07-04T01:23:26.693Z,1.60
2018-07-04T01:24:26.684Z,1.50
2018-07-04T01:25:26.618Z,1.70
2018-07-04T01:26:26.583Z,1.60
2018-07-04T01:27:26.545Z,1.50
2018-07-04T01:28:26.500Z,1.80
2018-07-04T01:29:26.476Z,1.80
2018-07-04T01:30:36.515Z,1.50
2018-07-04T01:31:26.433Z,1.70
2018-07-04T01:32:26.344Z,1.50
2018-07-04T01:33:26.324Z,1.70
2018-07-04T01:34:26.297Z,1.70
2018-07-04T01:35:26.268Z,1.70
2018-07-04T01:36:26.200Z,1.60
2018-07-04T01:37:26.181Z,1.50
2018-07-04T01:38:26.136Z,1.70
2018-07-04T01:39:26.091Z,2.00
2018-07-04T01:40:26.104Z,1.70
2018-07-04T01:41:26.017Z,1.70
2018-07-04T01:42:25.977Z,1.50
2018-07-04T01:43:25.964Z,1.90
2018-07-04T01:44:25.938Z,1.50
2018-07-04T01:45:25.929Z,1.50
2018-07-04T01:46:25.843Z,1.90
2018-07-04T01:47:25.794Z,1.60
2018-07-04T01:48:25.792Z,1.50
2018-07-04T01:49:25.729Z,1.60
2018-07-04T01:50:25.730Z,1.50
2018-07-04T01:51:25.713Z,1.70
2018-07-04T01:52:25.627Z,1.50
2018-07-04T01:53:25.588Z,1.60
2018-07-04T01:54:25.577Z,1.30
2018-07-04T01:55:25.587Z,1.40
2018-07-04T01:56:25.481Z,1.80
2018-07-04T01:57:25.450Z,1.60
2018-07-04T01:58:25.414Z,1.70
2018-07-04T01:59:25.371Z,1.80
2018-07-04T02:00:25.356Z,1.60
2018-07-04T02:01:25.297Z,1.80
2018-07-04T02:02:25.265Z,1.80
2018-07-04T02:03:25.243Z,1.80
2018-07-04T02:04:25.231Z,1.60
2018-07-04T02:05:25.174Z,1.70
2018-07-04T02:06:25.142Z,1.70
2018-07-04T02:07:25.085Z,1.50
2018-07-04T02:08:25.055Z,1.70
2018-07-04T02:09:25.019Z,1.80
2018-07-04T02:10:25.020Z,1.70
2018-07-04T02:11:24.937Z,1.60
2018-07-04T02:12:24.903Z,1.80
2018-07-04T02:13:24.850Z,1.60
2018-07-04T02:14:24.815Z,1.80
2018-07-04T02:15:24.805Z,1.70
2018-07-04T02:16:24.768Z,1.60
2018-07-04T02:17:24.708Z,1.80
2018-07-04T02:18:24.686Z,1.60
2018-07-04T02:19:24.635Z,1.60
2018-07-04T02:20:24.628Z,2.00
2018-07-04T02:21:24.611Z,1.70
2018-07-04T02:22:24.534Z,2.00
2018-07-04T02:23:24.488Z,1.90
2018-07-04T02:24:24.496Z,1.70
2018-07-04T02:25:24.449Z,1.80
2018-07-04T02:26:24.384Z,2.00
2018-07-04T02:27:24.346Z,1.90
2018-07-04T02:28:24.309Z,1.90
2018-07-04T02:29:24.286Z,2.10
2018-07-04T02:30:24.284Z,2.00
2018-07-04T02:31:24.208Z,2.00
2018-07-04T02:32:24.171Z,1.80
2018-07-04T02:33:24.135Z,2.00
2018-07-04T02:34:24.103Z,1.90
2018-07-04T02:35:24.087Z,1.90
2018-07-04T02:36:24.057Z,1.80
2018-07-04T02:37:23.974Z,1.90
2018-07-04T02:38:23.946Z,1.70
2018-07-04T02:39:23.931Z,1.70
2018-07-04T02:40:23.889Z,1.80
2018-07-04T02:41:23.869Z,1.80
2018-07-04T02:42:23.806Z,1.80
2018-07-04T02:43:23.771Z,2.20
2018-07-04T02:44:23.744Z,1.80
2018-07-04T02:45:23.702Z,1.90
2018-07-04T02:46:23.672Z,2.00
2018-07-04T02:47:23.647Z,2.10
2018-07-04T02:48:23.611Z,2.10
2018-07-04T02:49:23.547Z,1.80
2018-07-04T02:50:23.517Z,2.10
2018-07-04T02:51:23.486Z,2.20
2018-07-04T02:52:23.433Z,1.80
2018-07-04T02:53:23.424Z,1.90
2018-07-04T02:54:23.372Z,2.10
2018-07-04T02:55:23.317Z,1.90
2018-07-04T02:56:23.281Z,2.10
2018-07-04T02:57:23.246Z,2.00
2018-07-04T02:58:23.258Z,1.90
2018-07-04T02:59:23.179Z,2.00
2018-07-04T03:00:23.135Z,2.20
2018-07-04T03:01:23.116Z,2.20
2018-07-04T03:02:23.062Z,2.20
2018-07-04T03:03:23.053Z,2.20
2018-07-04T03:04:22.994Z,2.30
2018-07-04T03:05:22.955Z,2.10
2018-07-04T03:06:22.907Z,2.20
2018-07-04T03:07:22.900Z,2.20
2018-07-04T03:08:22.909Z,2.40
2018-07-04T03:09:22.811Z,2.50
2018-07-04T03:10:22.760Z,2.30
2018-07-04T03:11:22.763Z,2.30
2018-07-04T03:12:22.738Z,2.30
2018-07-04T03:13:22.697Z,2.30
2018-07-04T03:14:22.632Z,2.30
2018-07-04T03:15:22.584Z,2.30
2018-07-04T03:16:22.555Z,2.50
2018-07-04T03:17:22.520Z,2.20
2018-07-04T03:18:22.477Z,1.90
2018-07-04T03:19:22.465Z,2.50
2018-07-04T03:20:22.418Z,2.20
2018-07-04T03:21:22.379Z,2.60
2018-07-04T03:22:22.335Z,2.10
2018-07-04T03:23:22.294Z,2.30
2018-07-04T03:24:22.278Z,2.30
2018-07-04T03:25:22.228Z,2.50
2018-07-04T03:26:22.184Z,2.50
2018-07-04T03:27:22.144Z,2.40
2018-07-04T03:28:22.122Z,2.30
2018-07-04T03:29:22.092Z,2.30
2018-07-04T03:30:22.050Z,2.50
2018-07-04T03:31:21.998Z,2.20
2018-07-04T03:32:21.961Z,2.40
2018-07-04T03:33:21.928Z,2.40
2018-07-04T03:34:21.946Z,2.60
2018-07-04T03:35:21.848Z,2.50
2018-07-04T03:36:21.815Z,2.50
2018-07-04T03:37:21.777Z,2.30
2018-07-04T03:38:21.723Z,2.20
2018-07-04T03:39:21.764Z,2.60
2018-07-04T03:40:21.664Z,2.30
2018-07-04T03:41:21.617Z,2.60
2018-07-04T03:42:21.603Z,2.40
2018-07-04T03:43:21.575Z,2.30
2018-07-04T03:44:21.543Z,2.30
2018-07-04T03:45:21.469Z,2.40
2018-07-04T03:46:21.465Z,2.10
2018-07-04T03:47:21.410Z,2.50
2018-07-04T03:48:21.368Z,2.50
2018-07-04T03:49:21.328Z,2.60
2018-07-04T03:50:21.336Z,2.50
2018-07-04T03:51:21.257Z,2.50
2018-07-04T03:52:21.223Z,2.30
2018-07-04T03:53:21.179Z,2.50
2018-07-04T03:54:21.158Z,2.50
2018-07-04T03:55:21.130Z,2.60
2018-07-04T03:56:21.083Z,2.40
2018-07-04T03:57:21.045Z,2.50
2018-07-04T03:58:20.997Z,2.40
2018-07-04T03:59:20.951Z,2.50
2018-07-04T04:00:20.941Z,2.50
2018-07-04T04:01:20.879Z,2.40
2018-07-04T04:02:20.850Z,2.20
2018-07-04T04:03:20.818Z,2.30
2018-07-04T04:04:20.766Z,2.40
2018-07-04T04:05:20.753Z,2.50
2018-07-04T04:06:20.696Z,2.50
2018-07-04T04:07:20.698Z,2.70
2018-07-04T04:08:20.640Z,2.60
2018-07-04T04:09:20.575Z,2.70
2018-07-04T04:10:20.590Z,2.30
2018-07-04T04:11:20.507Z,2.60
2018-07-04T04:12:20.473Z,2.30
2018-07-04T04:13:20.435Z,2.50
2018-07-04T04:14:20.393Z,2.50
2018-07-04T04:15:30.090Z,2.40
2018-07-04T04:16:20.315Z,2.50
2018-07-04T04:17:20.369Z,2.50
2018-07-04T04:18:20.232Z,2.60
2018-07-04T04:19:20.199Z,2.50
2018-07-04T04:20:20.211Z,2.40
2018-07-04T04:21:20.132Z,2.60
2018-07-04T04:22:20.096Z,2.20
2018-07-04T04:23:20.109Z,2.40
2018-07-04T04:24:20.023Z,2.70
2018-07-04T04:25:20.032Z,2.50
2018-07-04T04:26:19.956Z,2.60
2018-07-04T04:27:19.915Z,2.40
2018-07-04T04:28:19.868Z,2.70
2018-07-04T04:29:19.838Z,2.40
2018-07-04T04:30:19.851Z,2.70
2018-07-04T04:31:19.790Z,2.60
2018-07-04T04:32:19.722Z,2.70
2018-07-04T04:33:19.691Z,2.50
2018-07-04T04:34:19.651Z,2.60
2018-07-04T04:35:19.657Z,2.60
2018-07-04T04:36:19.590Z,2.70
2018-07-04T04:37:19.548Z,2.70
2018-07-04T04:38:19.522Z,2.60
2018-07-04T04:39:19.484Z,2.50
2018-07-04T04:40:19.452Z,2.70
2018-07-04T04:41:19.404Z,2.60
2018-07-04T04:42:19.406Z,2.70
2018-07-04T04:43:19.315Z,2.60
2018-07-04T04:44:19.297Z,2.50
2018-07-04T04:45:19.297Z,2.70
2018-07-04T04:46:19.213Z,2.80
2018-07-04T04:47:19.170Z,2.80
2018-07-04T04:48:19.149Z,2.90
2018-07-04T04:49:19.146Z,2.80
2018-07-04T04:50:19.149Z,2.70
2018-07-04T04:51:19.034Z,2.60
2018-07-04T04:52:19.007Z,2.60
2018-07-04T04:53:19.002Z,2.90
2018-07-04T04:54:18.927Z,3.10
2018-07-04T04:55:18.928Z,2.80
2018-07-04T04:56:18.867Z,2.70
2018-07-04T04:57:18.823Z,2.70
2018-07-04T04:58:18.780Z,3.00
2018-07-04T04:59:18.728Z,2.80
2018-07-04T05:00:18.691Z,2.90
2018-07-04T05:01:18.693Z,3.00
2018-07-04T05:02:18.637Z,2.80
2018-07-04T05:03:18.585Z,3.10
2018-07-04T05:04:28.588Z,2.70
2018-07-04T05:05:18.517Z,2.80
2018-07-04T05:06:18.531Z,2.60
2018-07-04T05:07:18.429Z,2.60
2018-07-04T05:08:18.393Z,2.90
2018-07-04T05:09:18.356Z,2.70
2018-07-04T05:10:18.352Z,2.80
2018-07-04T05:11:18.308Z,2.60
2018-07-04T05:12:18.294Z,2.90
2018-07-04T05:13:18.226Z,2.80
2018-07-04T05:14:18.183Z,2.40
2018-07-04T05:15:18.201Z,2.60
2018-07-04T05:16:18.138Z,2.70
2018-07-04T05:17:18.100Z,2.70
2018-07-04T05:18:18.057Z,2.50
2018-07-04T05:19:18.015Z,2.60
2018-07-04T05:20:17.964Z,2.70
2018-07-04T05:21:17.937Z,2.60
2018-07-04T05:22:17.930Z,2.70
2018-07-04T05:23:17.874Z,2.70
2018-07-04T05:24:17.829Z,2.50
2018-07-04T05:25:17.825Z,2.60
2018-07-04T05:26:17.768Z,2.50
2018-07-04T05:27:17.756Z,2.70
2018-07-04T05:28:17.715Z,2.60
2018-07-04T05:29:17.646Z,2.60
2018-07-04T05:30:17.633Z,2.30
2018-07-04T05:31:17.565Z,2.90
2018-07-04T05:32:17.537Z,2.40
2018-07-04T05:33:17.529Z,2.60
2018-07-04T05:34:17.472Z,2.60
2018-07-04T05:35:17.461Z,2.70
2018-07-04T05:36:17.386Z,2.70
2018-07-04T05:37:17.360Z,2.40
2018-07-04T05:38:17.363Z,2.70
2018-07-04T05:39:17.280Z,2.70
2018-07-04T05:40:17.244Z,2.60
2018-07-04T05:41:17.211Z,2.40
2018-07-04T05:42:17.165Z,2.40
2018-07-04T05:43:17.135Z,2.60
2018-07-04T05:44:17.213Z,2.50
2018-07-04T05:45:17.073Z,2.20
2018-07-04T05:46:17.070Z,2.20
2018-07-04T05:47:17.000Z,2.10
2018-07-04T05:48:16.979Z,2.40
2018-07-04T05:49:26.735Z,2.10
2018-07-04T05:50:16.896Z,2.20
2018-07-04T05:51:16.855Z,2.00
2018-07-04T05:52:16.834Z,2.20
2018-07-04T05:53:16.791Z,2.30
2018-07-04T05:54:16.794Z,2.40
2018-07-04T05:55:16.726Z,2.30
2018-07-04T05:56:16.691Z,2.30
2018-07-04T05:57:16.664Z,2.30
2018-07-04T05:58:16.621Z,2.60
2018-07-04T05:59:16.646Z,2.50
2018-07-04T06:00:16.569Z,3.00
2018-07-04T06:01:16.534Z,2.10
2018-07-04T06:02:16.489Z,2.30
2018-07-04T06:03:16.457Z,2.20
2018-07-04T06:04:16.451Z,2.00
2018-07-04T06:05:16.424Z,2.30
2018-07-04T06:06:16.366Z,2.10
2018-07-04T06:07:16.338Z,2.10
2018-07-04T06:08:16.301Z,2.40
2018-07-04T06:09:16.257Z,2.20
2018-07-04T06:10:16.246Z,2.20
2018-07-04T06:11:16.189Z,2.40
2018-07-04T06:12:16.155Z,2.60
2018-07-04T06:13:16.128Z,2.50
2018-07-04T06:14:16.095Z,2.40
2018-07-04T06:15:16.078Z,2.50
2018-07-04T06:16:16.031Z,2.20
2018-07-04T06:17:15.995Z,2.40
2018-07-04T06:18:15.968Z,2.30
2018-07-04T06:19:15.946Z,2.40
2018-07-04T06:20:15.928Z,2.20
2018-07-04T06:21:15.856Z,2.20
2018-07-04T06:22:15.831Z,2.10
2018-07-04T06:23:15.803Z,2.40
2018-07-04T06:24:15.774Z,2.10
2018-07-04T06:25:15.778Z,2.10
2018-07-04T06:26:15.705Z,1.90
2018-07-04T06:27:15.670Z,2.20
2018-07-04T06:28:15.641Z,2.10
2018-07-04T06:29:15.626Z,1.90
2018-07-04T06:30:15.579Z,2.20
2018-07-04T06:31:15.571Z,2.10
2018-07-04T06:32:15.516Z,2.40
2018-07-04T06:33:15.482Z,2.10
2018-07-04T06:34:15.450Z,2.10
2018-07-04T06:35:15.414Z,1.90
2018-07-04T06:36:25.188Z,2.00
2018-07-04T06:37:15.361Z,2.20
2018-07-04T06:38:15.319Z,2.10
2018-07-04T06:39:15.337Z,2.50
2018-07-04T06:40:15.259Z,2.20
2018-07-04T06:41:15.249Z,2.30
2018-07-04T06:42:15.185Z,2.30
2018-07-04T06:43:15.161Z,2.20
2018-07-04T06:44:15.136Z,2.30
2018-07-04T06:45:15.091Z,2.40
2018-07-04T06:46:15.101Z,2.30
2018-07-04T06:47:15.034Z,2.30
2018-07-04T06:48:15.005Z,2.20
2018-07-04T06:49:15.014Z,2.10
2018-07-04T06:50:14.935Z,2.20
2018-07-04T06:51:14.898Z,2.20
2018-07-04T06:52:14.908Z,2.30
2018-07-04T06:53:14.837Z,2.40
2018-07-04T06:54:14.845Z,2.10
2018-07-04T06:55:14.779Z,2.40
2018-07-04T06:56:14.751Z,2.10
2018-07-04T06:57:14.762Z,2.10
2018-07-04T06:58:14.684Z,2.20
2018-07-04T06:59:14.659Z,2.20
2018-07-04T07:00:14.633Z,2.20
2018-07-04T07:01:14.647Z,2.10
2018-07-04T07:02:14.597Z,2.00
2018-07-04T07:03:14.528Z,2.10
2018-07-04T07:04:14.526Z,2.10
2018-07-04T07:05:14.475Z,2.20
2018-07-04T07:06:14.449Z,2.20
2018-07-04T07:07:14.441Z,2.00
2018-07-04T07:08:14.439Z,1.90
2018-07-04T07:09:14.362Z,2.00
2018-07-04T07:10:14.332Z,2.00
2018-07-04T07:11:14.312Z,2.00
2018-07-04T07:12:14.271Z,2.00
2018-07-04T07:13:14.254Z,2.00
2018-07-04T07:14:14.194Z,1.90
2018-07-04T07:15:14.161Z,1.80
2018-07-04T07:16:14.146Z,1.90
2018-07-04T07:17:14.096Z,2.00
2018-07-04T07:18:14.102Z,1.80
2018-07-04T07:19:14.045Z,1.90
2018-07-04T07:20:14.027Z,1.70
2018-07-04T07:21:14.014Z,2.00
2018-07-04T07:22:13.943Z,2.10
2018-07-04T07:23:13.931Z,2.00
2018-07-04T07:24:13.883Z,2.10
2018-07-04T07:25:13.849Z,2.30
2018-07-04T07:26:13.812Z,2.40
2018-07-04T07:27:13.791Z,2.10
2018-07-04T07:28:13.786Z,2.10
2018-07-04T07:29:13.739Z,2.40
2018-07-04T07:30:13.704Z,2.30
2018-07-04T07:31:13.663Z,2.10
2018-07-04T07:32:13.632Z,2.30
2018-07-04T07:33:13.647Z,2.10
2018-07-04T07:34:13.655Z,2.00
2018-07-04T07:35:13.545Z,2.10
2018-07-04T07:36:13.514Z,2.10
2018-07-04T07:37:13.491Z,2.00
2018-07-04T07:38:13.524Z,2.30
2018-07-04T07:39:13.497Z,2.00
2018-07-04T07:40:13.437Z,2.10
2018-07-04T07:41:13.399Z,2.20
2018-07-04T07:42:13.356Z,2.00
2018-07-04T07:43:13.328Z,2.00
2018-07-04T07:44:13.290Z,1.90
2018-07-04T07:45:13.306Z,2.20
2018-07-04T07:46:23.338Z,2.20
2018-07-04T07:47:13.310Z,1.90
2018-07-04T07:48:13.189Z,2.10
2018-07-04T07:49:13.272Z,1.90
2018-07-04T07:50:13.168Z,1.90
2018-07-04T07:51:13.091Z,1.60
2018-07-04T07:52:13.051Z,1.90
2018-07-04T07:53:13.013Z,1.80
2018-07-04T07:54:13.042Z,1.90
2018-07-04T07:55:12.975Z,1.90
2018-07-04T07:56:12.919Z,1.70
2018-07-04T07:57:12.905Z,2.00
2018-07-04T07:58:12.869Z,1.80
2018-07-04T07:59:12.844Z,1.40
2018-07-04T08:00:12.840Z,1.60
2018-07-04T08:01:12.779Z,1.70
2018-07-04T08:02:12.753Z,1.80
2018-07-04T08:03:12.726Z,1.90
2018-07-04T08:04:12.716Z,1.70
2018-07-04T08:05:12.659Z,1.70
2018-07-04T08:06:12.636Z,1.80
2018-07-04T08:07:12.602Z,1.60
2018-07-04T08:08:12.580Z,1.50
2018-07-04T08:09:12.579Z,1.80
2018-07-04T08:10:12.524Z,1.70
2018-07-04T08:11:12.490Z,1.80
2018-07-04T08:12:12.471Z,1.60
2018-07-04T08:13:12.440Z,1.50
2018-07-04T08:14:12.432Z,2.00
2018-07-04T08:15:12.392Z,1.70
2018-07-04T08:16:12.353Z,1.60
2018-07-04T08:17:12.321Z,1.90
2018-07-04T08:18:12.292Z,1.70
2018-07-04T08:19:12.300Z,1.90
2018-07-04T08:20:12.247Z,1.80
2018-07-04T08:21:12.212Z,1.90
2018-07-04T08:22:12.180Z,1.60
2018-07-04T08:23:12.159Z,1.80
2018-07-04T08:24:12.140Z,1.80
2018-07-04T08:25:12.128Z,1.80
2018-07-04T08:26:12.113Z,1.80
2018-07-04T08:27:12.057Z,1.70
2018-07-04T08:28:12.026Z,1.50
2018-07-04T08:29:11.994Z,1.90
2018-07-04T08:30:11.962Z,1.80
2018-07-04T08:31:11.958Z,1.90
2018-07-04T08:32:11.907Z,1.80
2018-07-04T08:33:11.886Z,1.70
2018-07-04T08:34:11.855Z,1.90
2018-07-04T08:35:11.817Z,1.90
2018-07-04T08:36:11.818Z,1.80
2018-07-04T08:37:11.773Z,2.00
2018-07-04T08:38:11.741Z,1.90
2018-07-04T08:39:11.713Z,1.80
2018-07-04T08:40:11.683Z,1.60
2018-07-04T08:41:11.650Z,1.80
2018-07-04T08:42:11.648Z,1.70
2018-07-04T08:43:11.592Z,1.80
2018-07-04T08:44:11.579Z,2.00
2018-07-04T08:45:11.532Z,1.90
2018-07-04T08:46:11.509Z,1.70
2018-07-04T08:47:11.503Z,1.90
2018-07-04T08:48:11.447Z,1.60
2018-07-04T08:49:11.411Z,1.70
2018-07-04T08:50:11.400Z,1.80
2018-07-04T08:51:11.402Z,1.70
2018-07-04T08:52:11.341Z,1.80
2018-07-04T08:53:11.313Z,2.00
2018-07-04T08:54:11.265Z,1.80
2018-07-04T08:55:11.232Z,1.80
2018-07-04T08:56:11.212Z,1.90
2018-07-04T08:57:11.180Z,2.10
2018-07-04T08:58:11.217Z,2.30
2018-07-04T08:59:11.121Z,2.20
2018-07-04T09:00:11.090Z,2.00
2018-07-04T09:01:11.057Z,2.30
2018-07-04T09:02:11.022Z,2.10
2018-07-04T09:03:10.991Z,2.00
2018-07-04T09:04:10.982Z,2.10
2018-07-04T09:05:10.947Z,2.00
2018-07-04T09:06:10.920Z,2.40
2018-07-04T09:07:10.920Z,2.10
2018-07-04T09:08:10.856Z,2.30
2018-07-04T09:09:10.861Z,2.00
2018-07-04T09:10:10.791Z,2.30
2018-07-04T09:11:10.796Z,2.00
2018-07-04T09:12:10.736Z,2.30
2018-07-04T09:13:10.691Z,2.40
2018-07-04T09:14:10.676Z,2.10
2018-07-04T09:15:10.666Z,2.30
2018-07-04T09:16:10.595Z,2.10
2018-07-04T09:17:10.633Z,2.40
2018-07-04T09:18:10.549Z,2.30
2018-07-04T09:19:10.522Z,2.30
2018-07-04T09:20:10.486Z,2.50
2018-07-04T09:21:10.470Z,2.30
2018-07-04T09:22:10.411Z,2.30
2018-07-04T09:23:10.392Z,2.50
2018-07-04T09:24:10.361Z,2.40
2018-07-04T09:25:10.313Z,2.40
2018-07-04T09:26:10.307Z,2.50
2018-07-04T09:27:10.289Z,2.90
2018-07-04T09:28:10.219Z,2.50
2018-07-04T09:29:10.200Z,2.30
2018-07-04T09:30:10.169Z,2.20
2018-07-04T09:31:10.156Z,2.10
2018-07-04T09:32:10.112Z,2.20
2018-07-04T09:33:10.071Z,2.40
2018-07-04T09:34:10.035Z,2.30
2018-07-04T09:35:10.041Z,2.10
2018-07-04T09:36:09.980Z,2.30
2018-07-04T09:37:09.955Z,2.10
2018-07-04T09:38:09.937Z,2.10
2018-07-04T09:39:09.880Z,2.40
2018-07-04T09:40:09.888Z,2.00
2018-07-04T09:41:09.825Z,2.00
2018-07-04T09:42:09.815Z,2.00
2018-07-04T09:43:20.297Z,2.40
2018-07-04T09:44:09.726Z,2.40
2018-07-04T09:45:09.714Z,2.10
2018-07-04T09:46:09.666Z,2.00
2018-07-04T09:47:09.644Z,2.30
2018-07-04T09:48:09.617Z,2.10
2018-07-04T09:49:09.582Z,2.00
2018-07-04T09:50:09.597Z,2.40
2018-07-04T09:51:09.525Z,2.30
2018-07-04T09:52:09.484Z,2.10
2018-07-04T09:53:09.469Z,2.00
2018-07-04T09:54:09.437Z,2.10
2018-07-04T09:55:09.400Z,2.40
2018-07-04T09:56:09.404Z,2.30
2018-07-04T09:57:09.348Z,2.20
2018-07-04T09:58:09.311Z,2.10
2018-07-04T09:59:09.289Z,2.00
2018-07-04T10:00:09.263Z,2.20
2018-07-04T10:01:09.234Z,2.10
2018-07-04T10:02:09.234Z,2.10
2018-07-04T10:03:09.178Z,2.20
2018-07-04T10:04:09.155Z,2.20
2018-07-04T10:05:09.132Z,2.20
2018-07-04T10:06:09.120Z,2.40
2018-07-04T10:07:09.060Z,2.50
2018-07-04T10:08:09.039Z,2.20
2018-07-04T10:09:09.014Z,2.30
2018-07-04T10:10:08.961Z,2.60
2018-07-04T10:11:08.953Z,2.50
2018-07-04T10:12:08.945Z,2.20
2018-07-04T10:13:08.887Z,2.60
2018-07-04T10:14:08.856Z,2.40
2018-07-04T10:15:08.822Z,2.30
2018-07-04T10:16:08.788Z,2.40
2018-07-04T10:17:08.805Z,2.30
2018-07-04T10:18:08.725Z,2.10
2018-07-04T10:19:08.719Z,2.20
2018-07-04T10:20:08.685Z,2.20
2018-07-04T10:21:08.644Z,2.20
2018-07-04T10:22:08.648Z,2.30
2018-07-04T10:23:08.600Z,2.50
2018-07-04T10:24:08.558Z,2.20
2018-07-04T10:25:08.516Z,2.30
2018-07-04T10:26:08.532Z,2.10
2018-07-04T10:27:08.454Z,2.10
2018-07-04T10:28:08.458Z,2.30
2018-07-04T10:29:08.402Z,2.50
2018-07-04T10:30:08.366Z,2.60
2018-07-04T10:31:08.343Z,2.30
2018-07-04T10:32:08.308Z,2.60
2018-07-04T10:33:08.321Z,2.60
2018-07-04T10:34:08.266Z,2.80
2018-07-04T10:35:08.225Z,3.30
2018-07-04T10:36:08.184Z,2.90
2018-07-04T10:37:08.141Z,2.90
2018-07-04T10:38:08.116Z,3.10
2018-07-04T10:39:08.124Z,3.00
2018-07-04T10:40:08.064Z,3.40
2018-07-04T10:41:08.017Z,3.40
2018-07-04T10:42:07.982Z,3.30
2018-07-04T10:43:07.965Z,3.40
2018-07-04T10:44:07.954Z,3.10
2018-07-04T10:45:07.894Z,3.00
2018-07-04T10:46:07.865Z,3.10
2018-07-04T10:47:07.830Z,3.20
2018-07-04T10:48:07.802Z,3.20
2018-07-04T10:49:07.786Z,3.10
2018-07-04T10:50:07.752Z,3.70
2018-07-04T10:51:07.704Z,3.20
2018-07-04T10:52:07.680Z,3.40
2018-07-04T10:53:07.652Z,3.50
2018-07-04T10:54:07.640Z,3.40
2018-07-04T10:55:07.579Z,3.30
2018-07-04T10:56:07.551Z,3.30
2018-07-04T10:57:07.525Z,3.00
2018-07-04T10:58:07.490Z,2.90
2018-07-04T10:59:07.486Z,3.20
2018-07-04T11:00:07.438Z,3.20
2018-07-04T11:01:07.405Z,3.00
2018-07-04T11:02:07.410Z,2.70
2018-07-04T11:03:07.394Z,3.00
2018-07-04T11:04:07.360Z,2.80
2018-07-04T11:05:07.303Z,3.00
2018-07-04T11:06:07.302Z,2.80
2018-07-04T11:07:07.265Z,3.20
2018-07-04T11:08:07.222Z,3.30
2018-07-04T11:09:07.185Z,3.20
2018-07-04T11:10:07.216Z,3.20
2018-07-04T11:11:07.141Z,3.50
2018-07-04T11:12:07.114Z,3.20
2018-07-04T11:13:07.084Z,3.40
2018-07-04T11:14:07.039Z,2.90
2018-07-04T11:15:07.052Z,3.10
2018-07-04T11:16:06.995Z,3.30
2018-07-04T11:17:17.808Z,3.20
2018-07-04T11:18:07.155Z,3.10
2018-07-04T11:19:07.272Z,2.80
2018-07-04T11:20:06.897Z,2.90
2018-07-04T11:21:06.849Z,3.00
2018-07-04T11:22:06.827Z,3.00
2018-07-04T11:23:06.801Z,3.40
2018-07-04T11:24:06.781Z,3.10
2018-07-04T11:25:06.752Z,3.20
2018-07-04T11:26:06.726Z,3.20
2018-07-04T11:27:06.673Z,3.10
2018-07-04T11:28:06.650Z,3.30
2018-07-04T11:29:06.621Z,2.80
2018-07-04T11:30:06.607Z,2.90
2018-07-04T11:31:06.584Z,2.30
2018-07-04T11:32:06.519Z,2.40
2018-07-04T11:33:06.496Z,2.50
2018-07-04T11:34:06.481Z,2.20
2018-07-04T11:35:06.485Z,1.90
2018-07-04T11:36:06.409Z,2.20
2018-07-04T11:37:06.389Z,2.20
2018-07-04T11:38:06.429Z,2.20
2018-07-04T11:39:17.216Z,2.20
2018-07-04T11:40:09.823Z,2.30
2018-07-04T11:41:06.988Z,2.20
2018-07-04T11:42:06.249Z,2.00
2018-07-04T11:43:06.379Z,2.60
2018-07-04T11:44:06.232Z,2.50
2018-07-04T11:45:06.208Z,2.40
2018-07-04T11:46:06.161Z,2.10
2018-07-04T11:47:06.099Z,2.30
2018-07-04T11:48:06.069Z,2.40
2018-07-04T11:49:06.039Z,2.40
2018-07-04T11:50:06.060Z,2.60
2018-07-04T11:51:06.011Z,2.60
2018-07-04T11:52:05.973Z,2.80
2018-07-04T11:53:05.947Z,2.60
2018-07-04T11:54:05.933Z,3.00
2018-07-04T11:55:05.909Z,2.60
2018-07-04T11:56:05.864Z,2.80
2018-07-04T11:57:05.861Z,2.50
2018-07-04T11:58:05.820Z,2.60
2018-07-04T11:59:05.782Z,2.80
2018-07-04T12:00:05.746Z,2.50
2018-07-04T12:01:05.751Z,2.50
2018-07-04T12:02:05.701Z,3.10
2018-07-04T12:03:05.674Z,2.80
2018-07-04T12:04:05.645Z,2.70
2018-07-04T12:05:05.629Z,2.70
2018-07-04T12:06:05.622Z,2.70
2018-07-04T12:07:05.600Z,4.30
2018-07-04T12:08:05.553Z,11.20
2018-07-04T12:09:05.518Z,2.60
2018-07-04T12:10:05.497Z,4.20
2018-07-04T12:11:05.484Z,2.50
2018-07-04T12:12:05.428Z,2.30
2018-07-04T12:13:05.414Z,2.60
2018-07-04T12:14:05.402Z,2.70
2018-07-04T12:15:05.343Z,3.00
2018-07-04T12:16:05.389Z,2.50
2018-07-04T12:17:05.833Z,2.60
2018-07-04T12:18:05.265Z,2.40
2018-07-04T12:19:05.341Z,2.70
2018-07-04T12:20:05.223Z,2.70
2018-07-04T12:21:05.209Z,2.80
2018-07-04T12:22:05.174Z,2.70
2018-07-04T12:23:05.128Z,2.60
2018-07-04T12:24:05.097Z,2.80
2018-07-04T12:25:05.064Z,3.00
2018-07-04T12:26:05.058Z,3.00
2018-07-04T12:27:05.038Z,2.90
2018-07-04T12:28:04.974Z,2.60
2018-07-04T12:29:04.977Z,2.50
2018-07-04T12:30:04.916Z,2.90
2018-07-04T12:31:04.905Z,2.90
2018-07-04T12:32:04.920Z,2.90
2018-07-04T12:33:04.896Z,3.30
2018-07-04T12:34:04.823Z,3.00
2018-07-04T12:35:04.784Z,3.00
2018-07-04T12:36:04.765Z,3.40
2018-07-04T12:37:04.709Z,3.20
2018-07-04T12:38:04.734Z,3.20
2018-07-04T12:39:04.645Z,2.90
2018-07-04T12:40:04.622Z,3.00
2018-07-04T12:41:04.596Z,3.10
2018-07-04T12:42:04.564Z,3.10
2018-07-04T12:43:04.560Z,2.80
2018-07-04T12:44:04.508Z,2.80
2018-07-04T12:45:04.473Z,3.00
2018-07-04T12:46:04.488Z,2.80
2018-07-04T12:47:04.498Z,3.20
2018-07-04T12:48:04.402Z,3.10
2018-07-04T12:49:04.343Z,2.80
2018-07-04T12:50:04.334Z,3.30
2018-07-04T12:51:04.336Z,3.00
2018-07-04T12:52:04.332Z,3.00
2018-07-04T12:53:04.275Z,2.80
2018-07-04T12:54:04.243Z,3.10
2018-07-04T12:55:04.166Z,3.20
2018-07-04T12:56:04.138Z,3.10
2018-07-04T12:57:04.109Z,3.00
2018-07-04T12:58:04.079Z,3.10
2018-07-04T12:59:04.260Z,2.90
2018-07-04T13:00:04.021Z,3.10
2018-07-04T13:01:03.976Z,2.90
2018-07-04T13:02:03.948Z,3.00
2018-07-04T13:03:03.965Z,3.00
2018-07-04T13:04:03.948Z,3.30
2018-07-04T13:05:03.858Z,2.90
2018-07-04T13:06:03.836Z,3.00
2018-07-04T13:07:03.817Z,2.90
2018-07-04T13:08:03.768Z,3.40
2018-07-04T13:09:03.822Z,3.00
2018-07-04T13:10:03.708Z,3.20
2018-07-04T13:11:03.683Z,2.80
2018-07-04T13:12:03.731Z,2.90
2018-07-04T13:13:03.616Z,3.00
2018-07-04T13:14:03.646Z,2.90
2018-07-04T13:15:03.541Z,2.70
2018-07-04T13:16:03.552Z,3.10
2018-07-04T13:17:03.499Z,3.00
2018-07-04T13:18:03.457Z,2.90